createdAt,value
2018-06-13T00:02:12.623Z,12.70
2018-06-13T00:04:41.338Z,12.60
2018-06-13T00:07:10.189Z,12.60
2018-06-13T00:09:38.873Z,12.60
2018-06-13T00:12:07.661Z,12.60
2018-06-13T00:14:36.446Z,12.60
2018-06-13T00:17:05.229Z,12.50
2018-06-13T00:19:34.064Z,12.40
2018-06-13T00:22:02.757Z,12.40
2018-06-13T00:24:31.440Z,12.30
2018-06-13T00:27:00.158Z,12.30
2018-06-13T00:29:28.839Z,12.20
2018-06-13T00:31:57.554Z,12.20
2018-06-13T00:34:26.283Z,12.20
2018-06-13T00:36:55.340Z,12.20
2018-06-13T00:39:24.228Z,12.10
2018-06-13T00:41:53.015Z,12.10
2018-06-13T00:44:21.833Z,12.10
2018-06-13T00:46:50.517Z,12.10
2018-06-13T00:49:19.408Z,12.00
2018-06-13T00:51:48.258Z,12.10
2018-06-13T00:54:16.930Z,12.10
2018-06-13T00:56:45.681Z,12.10
2018-06-13T00:59:14.429Z,12.10
2018-06-13T01:01:43.213Z,12.10
2018-06-13T01:04:12.048Z,12.00
2018-06-13T01:09:31.513Z,12.00
2018-06-13T01:12:00.194Z,12.00
2018-06-13T01:14:29.037Z,12.00
2018-06-13T01:16:57.717Z,12.00
2018-06-13T01:19:26.394Z,12.00
2018-06-13T01:21:55.007Z,12.00
2018-06-13T01:24:23.861Z,12.00
2018-06-13T01:26:52.551Z,12.00
2018-06-13T01:29:21.258Z,12.00
2018-06-13T01:31:50.149Z,11.90
2018-06-13T01:34:18.772Z,11.80
2018-06-13T01:36:47.521Z,11.90
2018-06-13T01:39:16.265Z,11.80
2018-06-13T01:41:45.033Z,11.80
2018-06-13T01:44:13.806Z,11.80
2018-06-13T01:46:42.416Z,11.80
2018-06-13T01:49:11.185Z,11.80
2018-06-13T01:51:39.874Z,11.80
2018-06-13T01:54:08.606Z,11.70
2018-06-13T01:56:37.314Z,11.70
2018-06-13T01:59:05.977Z,11.70
2018-06-13T02:01:34.740Z,11.70
2018-06-13T02:04:03.857Z,11.70
2018-06-13T02:06:32.602Z,11.70
2018-06-13T02:09:01.422Z,11.60
2018-06-13T02:11:30.152Z,11.60
2018-06-13T02:13:59.017Z,11.60
2018-06-13T02:16:27.763Z,11.50
2018-06-13T02:18:56.550Z,11.50
2018-06-13T02:21:25.285Z,11.60
2018-06-13T02:23:54.042Z,11.60
2018-06-13T02:26:22.791Z,11.60
2018-06-13T02:28:51.538Z,11.60
2018-06-13T02:31:20.221Z,11.60
2018-06-13T02:33:49.002Z,11.60
2018-06-13T02:36:17.683Z,11.50
2018-06-13T02:38:46.321Z,11.50
2018-06-13T02:41:15.051Z,11.40
2018-06-13T02:43:43.721Z,11.40
2018-06-13T02:46:12.513Z,11.50
2018-06-13T02:48:41.244Z,11.50
2018-06-13T02:51:10.017Z,11.40
2018-06-13T02:53:38.731Z,11.40
2018-06-13T02:56:07.394Z,11.40
2018-06-13T02:58:36.379Z,11.40
2018-06-13T03:01:05.098Z,11.40
2018-06-13T03:03:33.806Z,11.40
2018-06-13T03:06:02.568Z,11.40
2018-06-13T03:08:31.347Z,11.40
2018-06-13T03:10:59.973Z,11.40
2018-06-13T03:13:28.738Z,11.50
2018-06-13T03:15:57.371Z,11.50
2018-06-13T03:18:26.133Z,11.40
2018-06-13T03:20:54.838Z,11.40
2018-06-13T03:23:23.717Z,11.40
2018-06-13T03:25:52.577Z,11.40
2018-06-13T03:28:21.463Z,11.40
2018-06-13T03:30:51.500Z,11.40
2018-06-13T03:33:20.458Z,11.30
2018-06-13T03:35:49.345Z,11.30
2018-06-13T03:38:18.125Z,11.40
2018-06-13T03:40:46.958Z,11.40
2018-06-13T03:43:15.658Z,11.40
2018-06-13T03:45:44.397Z,11.40
2018-06-13T03:48:13.139Z,11.40
2018-06-13T03:50:41.765Z,11.40
2018-06-13T03:53:10.691Z,11.40
2018-06-13T03:55:39.373Z,11.40
2018-06-13T03:58:08.033Z,11.50
2018-06-13T04:00:36.813Z,11.40
2018-06-13T04:03:05.868Z,11.40
2018-06-13T04:05:34.603Z,11.40
2018-06-13T04:08:03.478Z,11.40
2018-06-13T04:10:32.439Z,11.40
2018-06-13T04:13:01.285Z,11.30
2018-06-13T04:15:30.098Z,11.30
2018-06-13T04:17:58.769Z,11.30
2018-06-13T04:20:27.462Z,11.30
2018-06-13T04:22:56.237Z,11.30
2018-06-13T04:25:24.918Z,11.30
2018-06-13T04:27:53.589Z,11.30
2018-06-13T04:30:28.805Z,11.30
2018-06-13T04:33:02.306Z,11.30
2018-06-13T04:35:30.990Z,11.30
2018-06-13T04:38:04.567Z,11.30
2018-06-13T04:40:59.735Z,11.30
2018-06-13T04:43:29.946Z,11.30
2018-06-13T04:45:58.649Z,11.30
2018-06-13T04:48:28.649Z,11.40
2018-06-13T04:50:57.963Z,11.50
2018-06-13T04:53:26.750Z,11.50
2018-06-13T04:55:57.691Z,11.50
2018-06-13T04:58:26.874Z,11.50
2018-06-13T05:00:55.762Z,11.50
2018-06-13T05:03:24.651Z,11.60
2018-06-13T05:05:54.144Z,11.80
2018-06-13T05:08:23.825Z,11.80
2018-06-13T05:10:52.961Z,11.80
2018-06-13T05:13:22.154Z,11.80
2018-06-13T05:15:51.442Z,11.80
2018-06-13T05:18:20.545Z,11.90
2018-06-13T05:21:52.645Z,11.90
2018-06-13T05:24:21.270Z,11.90
2018-06-13T05:26:49.926Z,12.00
2018-06-13T05:29:18.466Z,12.00
2018-06-13T05:31:47.294Z,12.20
2018-06-13T05:34:16.073Z,12.10
2018-06-13T05:36:44.908Z,12.20
2018-06-13T05:39:13.889Z,12.20
2018-06-13T05:41:42.457Z,12.20
2018-06-13T05:44:11.241Z,12.20
2018-06-13T05:46:40.091Z,12.20
2018-06-13T05:49:08.713Z,12.10
2018-06-13T05:51:37.530Z,12.10
2018-06-13T05:54:06.277Z,12.20
2018-06-13T05:56:34.849Z,12.30
2018-06-13T05:59:04.129Z,12.10
2018-06-13T06:01:32.875Z,11.90
2018-06-13T06:04:01.715Z,12.00
2018-06-13T06:06:30.741Z,12.10
2018-06-13T06:09:00.324Z,12.10
2018-06-13T06:11:28.922Z,12.10
2018-06-13T06:16:25.905Z,12.40
2018-06-13T06:18:54.792Z,12.30
2018-06-13T06:21:23.479Z,12.30
2018-06-13T06:23:52.427Z,12.30
2018-06-13T06:26:21.199Z,12.30
2018-06-13T06:28:50.119Z,12.40
2018-06-13T06:31:19.161Z,12.60
2018-06-13T06:33:47.767Z,12.50
2018-06-13T06:36:16.478Z,12.50
2018-06-13T06:38:45.649Z,12.50
2018-06-13T06:41:14.303Z,12.60
2018-06-13T06:43:42.888Z,12.70
2018-06-13T06:46:11.768Z,12.80
2018-06-13T06:48:40.731Z,12.80
2018-06-13T06:51:09.263Z,13.00
2018-06-13T06:53:38.055Z,12.60
2018-06-13T06:56:06.911Z,12.50
2018-06-13T06:58:36.181Z,12.70
2018-06-13T07:01:05.278Z,12.80
2018-06-13T07:03:34.939Z,13.00
2018-06-13T07:06:03.557Z,13.10
2018-06-13T07:08:32.116Z,13.30
2018-06-13T07:11:00.995Z,12.90
2018-06-13T07:13:30.355Z,12.90
2018-06-13T07:15:59.209Z,13.10
2018-06-13T07:18:28.073Z,13.10
2018-06-13T07:20:56.888Z,13.20
2018-06-13T07:23:25.695Z,13.30
2018-06-13T07:25:54.349Z,13.40
2018-06-13T07:28:23.093Z,13.20
2018-06-13T07:30:51.854Z,13.40
2018-06-13T07:33:20.650Z,13.20
2018-06-13T07:35:56.315Z,13.30
2018-06-13T07:38:24.959Z,13.40
2018-06-13T07:40:53.603Z,13.30
2018-06-13T07:43:22.507Z,13.40
2018-06-13T07:45:55.295Z,13.40
2018-06-13T07:48:24.305Z,13.40
2018-06-13T07:50:52.912Z,13.30
2018-06-13T07:53:21.505Z,13.40
2018-06-13T07:55:50.542Z,13.40
2018-06-13T07:58:19.165Z,13.20
2018-06-13T08:00:48.243Z,13.30
2018-06-13T08:03:16.853Z,13.20
2018-06-13T08:05:45.406Z,13.30
2018-06-13T08:08:14.362Z,13.20
2018-06-13T08:10:43.215Z,13.30
2018-06-13T08:13:11.997Z,13.20
2018-06-13T08:15:41.078Z,13.30
2018-06-13T08:18:09.725Z,13.30
2018-06-13T08:20:38.554Z,13.30
2018-06-13T08:23:07.230Z,13.50
2018-06-13T08:25:36.162Z,13.70
2018-06-13T08:28:04.682Z,13.80
2018-06-13T08:30:34.082Z,13.70
2018-06-13T08:33:03.033Z,13.60
2018-06-13T08:35:31.830Z,13.20
2018-06-13T08:38:00.558Z,13.00
2018-06-13T08:40:29.439Z,13.10
2018-06-13T08:42:57.992Z,13.10
2018-06-13T08:45:26.619Z,13.30
2018-06-13T08:47:55.426Z,13.60
2018-06-13T08:50:24.192Z,13.90
2018-06-13T08:52:52.925Z,14.10
2018-06-13T08:55:22.009Z,14.40
2018-06-13T08:57:51.025Z,14.40
2018-06-13T09:00:19.780Z,14.70
2018-06-13T09:02:48.576Z,14.70
2018-06-13T09:05:17.290Z,14.60
2018-06-13T09:07:46.133Z,14.60
2018-06-13T09:10:15.451Z,14.30
2018-06-13T09:12:44.084Z,14.40
2018-06-13T09:15:12.702Z,14.60
2018-06-13T09:17:41.623Z,14.70
2018-06-13T09:20:10.868Z,14.80
2018-06-13T09:22:39.565Z,14.40
2018-06-13T09:25:08.650Z,14.10
2018-06-13T09:27:37.355Z,14.10
2018-06-13T09:30:06.717Z,14.40
2018-06-13T09:32:35.543Z,14.70
2018-06-13T09:35:04.490Z,14.20
2018-06-13T09:37:33.220Z,14.60
2018-06-13T09:40:01.692Z,15.00
2018-06-13T09:42:30.418Z,15.20
2018-06-13T09:44:59.037Z,15.00
2018-06-13T09:47:27.627Z,15.10
2018-06-13T09:49:56.391Z,15.40
2018-06-13T09:52:25.364Z,15.40
2018-06-13T09:54:54.100Z,15.40
2018-06-13T09:57:22.937Z,15.20
2018-06-13T10:02:52.976Z,14.90
2018-06-13T10:05:21.615Z,14.80
2018-06-13T10:07:50.664Z,14.90
2018-06-13T10:10:19.406Z,15.00
2018-06-13T10:12:48.117Z,15.10
2018-06-13T10:15:16.895Z,15.30
2018-06-13T10:17:45.528Z,14.40
2018-06-13T10:20:14.226Z,14.60
2018-06-13T10:22:43.016Z,14.60
2018-06-13T10:25:11.819Z,14.50
2018-06-13T10:27:41.384Z,14.60
2018-06-13T10:30:10.301Z,14.70
2018-06-13T10:32:39.452Z,14.80
2018-06-13T10:35:08.324Z,14.50
2018-06-13T10:37:36.942Z,14.80
2018-06-13T10:40:06.246Z,15.20
2018-06-13T10:42:35.129Z,15.40
2018-06-13T10:47:49.846Z,15.60
2018-06-13T10:50:18.599Z,15.80
2018-06-13T10:52:47.203Z,16.00
2018-06-13T10:55:16.067Z,16.00
2018-06-13T10:57:44.749Z,16.30
2018-06-13T11:00:13.494Z,16.60
2018-06-13T11:02:42.330Z,16.20
2018-06-13T11:05:10.946Z,16.20
2018-06-13T11:07:39.886Z,16.30
2018-06-13T11:10:08.425Z,16.60
2018-06-13T11:12:37.358Z,16.90
2018-06-13T11:15:06.783Z,17.10
2018-06-13T11:17:35.419Z,16.40
2018-06-13T11:20:05.630Z,16.40
2018-06-13T11:22:34.666Z,16.50
2018-06-13T11:25:03.449Z,16.30
2018-06-13T11:27:32.357Z,16.10
2018-06-13T11:30:01.198Z,15.90
2018-06-13T11:32:29.847Z,16.00
2018-06-13T11:35:02.405Z,15.90
2018-06-13T11:37:30.965Z,15.80
2018-06-13T11:39:59.914Z,15.90
2018-06-13T11:42:28.741Z,16.00
2018-06-13T11:44:57.644Z,16.00
2018-06-13T11:47:26.821Z,16.00
2018-06-13T11:49:55.317Z,15.90
2018-06-13T11:52:24.146Z,15.70
2018-06-13T11:54:52.834Z,15.60
2018-06-13T11:57:22.490Z,15.60
2018-06-13T11:59:51.117Z,15.70
2018-06-13T12:02:20.075Z,15.70
2018-06-13T12:04:51.964Z,15.70
2018-06-13T12:07:20.821Z,15.50
2018-06-13T12:09:49.349Z,15.80
2018-06-13T12:12:18.248Z,15.80
2018-06-13T12:14:46.978Z,15.60
2018-06-13T12:17:15.885Z,15.70
2018-06-13T12:19:44.447Z,15.50
2018-06-13T12:22:14.243Z,15.30
2018-06-13T12:24:43.410Z,15.30
2018-06-13T12:27:13.898Z,15.40
2018-06-13T12:29:42.795Z,15.40
2018-06-13T12:32:11.367Z,15.50
2018-06-13T12:34:40.001Z,15.60
2018-06-13T12:37:08.590Z,15.60
2018-06-13T12:39:39.850Z,15.40
2018-06-13T12:42:08.907Z,15.40
2018-06-13T12:44:37.798Z,15.50
2018-06-13T12:47:06.488Z,15.80
2018-06-13T12:49:35.197Z,16.00
2018-06-13T12:52:04.359Z,16.00
2018-06-13T12:54:33.327Z,16.30
2018-06-13T12:57:02.305Z,16.30
2018-06-13T12:59:30.954Z,16.50
2018-06-13T13:01:59.690Z,16.40
2018-06-13T13:04:28.315Z,16.50
2018-06-13T13:06:56.933Z,16.40
2018-06-13T13:09:25.740Z,16.40
2018-06-13T13:11:54.392Z,16.60
2018-06-13T13:14:23.226Z,16.40
2018-06-13T13:16:51.875Z,16.30
2018-06-13T13:19:20.484Z,16.40
2018-06-13T13:21:49.455Z,16.40
2018-06-13T13:24:18.169Z,16.40
2018-06-13T13:26:47.108Z,16.70
2018-06-13T13:29:15.618Z,16.30
2018-06-13T13:31:44.429Z,16.00
2018-06-13T13:34:12.998Z,16.00
2018-06-13T13:36:41.487Z,16.00
2018-06-13T13:39:10.996Z,15.80
2018-06-13T13:41:40.197Z,15.70
2018-06-13T13:44:09.123Z,15.70
2018-06-13T13:46:37.947Z,15.60
2018-06-13T13:49:06.822Z,15.50
2018-06-13T13:51:35.714Z,15.60
2018-06-13T13:54:05.012Z,15.40
2018-06-13T13:56:34.251Z,15.30
2018-06-13T13:59:03.075Z,15.50
2018-06-13T14:01:35.995Z,15.70
2018-06-13T14:04:05.012Z,15.80
2018-06-13T14:07:02.264Z,15.90
2018-06-13T14:09:31.331Z,16.10
2018-06-13T14:12:00.057Z,16.00
2018-06-13T14:14:28.785Z,16.20
2018-06-13T14:16:57.429Z,15.80
2018-06-13T14:19:26.041Z,16.00
2018-06-13T14:22:04.914Z,16.10
2018-06-13T14:24:34.305Z,16.00
2018-06-13T14:27:03.388Z,16.10
2018-06-13T14:29:31.991Z,15.90
2018-06-13T14:32:11.047Z,16.20
2018-06-13T14:34:39.946Z,15.90
2018-06-13T14:37:08.838Z,16.20
2018-06-13T14:39:37.442Z,16.30
2018-06-13T14:42:06.007Z,16.40
2018-06-13T14:44:34.602Z,16.40
2018-06-13T14:47:03.414Z,16.70
2018-06-13T14:49:32.117Z,17.00
2018-06-13T14:52:00.937Z,17.00
2018-06-13T14:54:29.971Z,16.70
2018-06-13T14:56:58.689Z,16.90
2018-06-13T15:02:20.696Z,17.30
2018-06-13T15:05:14.677Z,17.60
2018-06-13T15:07:43.290Z,17.60
2018-06-13T15:10:12.306Z,17.20
2018-06-13T15:12:41.210Z,16.90
2018-06-13T15:15:09.866Z,16.60
2018-06-13T15:17:45.243Z,16.50
2018-06-13T15:20:13.899Z,16.60
2018-06-13T15:22:42.703Z,16.50
2018-06-13T15:25:13.196Z,16.10
2018-06-13T15:28:19.863Z,16.10
2018-06-13T15:30:48.473Z,16.10
2018-06-13T15:33:17.275Z,16.10
2018-06-13T15:35:46.033Z,16.40
2018-06-13T15:38:15.062Z,16.50
2018-06-13T15:40:43.749Z,16.70
2018-06-13T15:43:12.680Z,16.80
2018-06-13T15:45:41.523Z,16.70
2018-06-13T15:48:10.079Z,16.50
2018-06-13T15:50:54.757Z,16.50
2018-06-13T15:53:26.695Z,16.60
2018-06-13T15:55:55.685Z,16.50
2018-06-13T15:58:24.817Z,16.50
2018-06-13T16:00:53.618Z,16.60
2018-06-13T16:03:23.257Z,16.60
2018-06-13T16:05:52.213Z,16.50
2018-06-13T16:08:20.861Z,16.60
2018-06-13T16:10:49.923Z,16.80
2018-06-13T16:13:19.009Z,16.80
2018-06-13T16:15:47.942Z,16.80
2018-06-13T16:18:17.061Z,17.00
2018-06-13T16:20:46.281Z,17.00
2018-06-13T16:23:15.038Z,16.80
2018-06-13T16:25:43.813Z,16.80
2018-06-13T16:28:12.591Z,16.80
2018-06-13T16:30:41.427Z,16.60
2018-06-13T16:33:10.317Z,16.80
2018-06-13T16:35:39.017Z,16.70
2018-06-13T16:38:07.933Z,16.80
2018-06-13T16:40:36.859Z,16.90
2018-06-13T16:43:05.656Z,16.80
2018-06-13T16:45:34.460Z,16.50
2018-06-13T16:48:03.176Z,16.40
2018-06-13T16:50:42.919Z,16.20
2018-06-13T16:53:22.649Z,16.10
2018-06-13T16:55:51.465Z,16.10
2018-06-13T16:58:20.311Z,16.20
2018-06-13T17:00:49.218Z,16.20
2018-06-13T17:03:18.007Z,16.20
2018-06-13T17:05:47.165Z,16.20
2018-06-13T17:08:15.884Z,16.30
2018-06-13T17:10:44.726Z,16.20
2018-06-13T17:13:13.663Z,16.30
2018-06-13T17:15:42.715Z,16.40
2018-06-13T17:18:11.407Z,16.50
2018-06-13T17:20:40.402Z,16.50
2018-06-13T17:23:09.143Z,16.50
2018-06-13T17:25:37.833Z,16.50
2018-06-13T17:28:13.860Z,16.50
2018-06-13T17:30:42.947Z,16.30
2018-06-13T17:33:11.514Z,16.30
2018-06-13T17:35:40.071Z,16.40
2018-06-13T17:38:08.962Z,16.40
2018-06-13T17:40:37.933Z,16.40
2018-06-13T17:43:06.619Z,16.20
2018-06-13T17:45:37.919Z,16.20
2018-06-13T17:48:06.857Z,16.20
2018-06-13T17:50:35.808Z,16.30
2018-06-13T17:53:04.385Z,16.20
2018-06-13T17:55:33.817Z,16.10
2018-06-13T17:58:03.277Z,16.20
2018-06-13T18:00:32.173Z,16.20
2018-06-13T18:03:01.323Z,16.20
2018-06-13T18:05:30.193Z,16.10
2018-06-13T18:07:58.961Z,16.00
2018-06-13T18:10:30.882Z,15.90
2018-06-13T18:12:59.647Z,16.00
2018-06-13T18:15:28.339Z,16.00
2018-06-13T18:17:57.097Z,16.00
2018-06-13T18:20:25.826Z,16.00
2018-06-13T18:22:54.607Z,16.00
2018-06-13T18:25:23.746Z,15.90
2018-06-13T18:27:52.717Z,16.00
2018-06-13T18:30:22.853Z,16.00
2018-06-13T18:32:51.602Z,15.90
2018-06-13T18:35:20.552Z,15.90
2018-06-13T18:37:49.281Z,15.90
2018-06-13T18:40:18.033Z,15.90
2018-06-13T18:42:53.301Z,15.90
2018-06-13T18:45:23.069Z,15.90
2018-06-13T18:47:53.847Z,15.80
2018-06-13T18:50:22.531Z,15.70
2018-06-13T18:52:51.305Z,15.60
2018-06-13T18:55:19.912Z,15.70
2018-06-13T18:57:48.762Z,15.80
2018-06-13T19:00:17.585Z,15.90
2018-06-13T19:02:46.337Z,15.70
2018-06-13T19:05:15.123Z,15.70
2018-06-13T19:07:43.978Z,15.80
2018-06-13T19:10:12.733Z,15.80
2018-06-13T19:12:41.547Z,15.80
2018-06-13T19:15:10.265Z,15.70
2018-06-13T19:17:39.077Z,15.60
2018-06-13T19:20:07.779Z,15.60
2018-06-13T19:22:36.519Z,15.50
2018-06-13T19:25:05.562Z,15.30
2018-06-13T19:27:35.514Z,15.10
2018-06-13T19:30:04.354Z,15.00
2018-06-13T19:32:33.203Z,14.90
2018-06-13T19:37:43.596Z,14.70
2018-06-13T19:40:12.579Z,14.60
2018-06-13T19:42:41.254Z,14.60
2018-06-13T19:48:01.093Z,14.40
2018-06-13T19:50:30.027Z,14.50
2018-06-13T19:53:14.886Z,14.50
2018-06-13T19:55:48.793Z,14.40
2018-06-13T19:58:17.516Z,14.30
2018-06-13T20:00:46.234Z,14.10
2018-06-13T20:03:19.995Z,14.00
2018-06-13T20:05:48.893Z,14.00
2018-06-13T20:08:17.590Z,13.80
2018-06-13T20:10:46.259Z,13.70
2018-06-13T20:13:24.404Z,13.70
2018-06-13T20:16:00.736Z,13.60
2018-06-13T20:18:34.741Z,13.60
2018-06-13T20:21:03.910Z,13.50
2018-06-13T20:23:32.628Z,13.40
2018-06-13T20:26:06.721Z,13.20
2018-06-13T20:28:41.962Z,13.10
2018-06-13T20:31:16.994Z,13.10
2018-06-13T20:33:45.952Z,13.00
2018-06-13T20:36:14.802Z,13.00
2018-06-13T20:38:43.552Z,12.90
2018-06-13T20:41:12.749Z,12.80
2018-06-13T20:43:41.546Z,12.70
2018-06-13T20:46:10.350Z,12.70
2018-06-13T20:48:39.382Z,12.70
2018-06-13T20:51:08.244Z,12.60
2018-06-13T20:53:37.082Z,12.40
2018-06-13T20:56:05.870Z,12.40
2018-06-13T20:58:35.070Z,12.40
2018-06-13T21:01:03.981Z,12.30
2018-06-13T21:03:32.895Z,12.30
2018-06-13T21:06:01.664Z,12.20
2018-06-13T21:08:30.589Z,12.20
2018-06-13T21:10:59.429Z,12.10
2018-06-13T21:13:28.301Z,12.10
2018-06-13T21:15:57.116Z,12.10
2018-06-13T21:18:25.999Z,12.10
2018-06-13T21:20:54.896Z,12.10
2018-06-13T21:23:23.772Z,12.00
2018-06-13T21:25:52.527Z,11.90
2018-06-13T21:28:21.340Z,11.80
2018-06-13T21:30:50.086Z,11.80
2018-06-13T21:33:19.418Z,11.70
2018-06-13T21:35:48.254Z,11.60
2018-06-13T21:38:16.979Z,11.60
2018-06-13T21:40:46.028Z,11.60
2018-06-13T21:43:14.899Z,11.60
2018-06-13T21:45:43.728Z,11.60
2018-06-13T21:48:12.529Z,11.60
2018-06-13T21:50:41.578Z,11.60
2018-06-13T21:53:10.332Z,11.50
2018-06-13T21:55:39.395Z,11.30
2018-06-13T21:58:08.140Z,11.30
2018-06-13T22:00:37.252Z,11.20
2018-06-13T22:03:06.093Z,11.20
2018-06-13T22:05:34.962Z,11.20
2018-06-13T22:08:15.122Z,11.10
2018-06-13T22:10:50.866Z,11.10
2018-06-13T22:13:19.850Z,11.10
2018-06-13T22:15:49.851Z,11.10
2018-06-13T22:18:18.919Z,11.20
2018-06-13T22:20:47.818Z,11.10
2018-06-13T22:23:16.509Z,11.00
2018-06-13T22:25:45.331Z,11.00
2018-06-13T22:28:15.825Z,10.90
2018-06-13T22:30:44.844Z,10.80
2018-06-13T22:33:14.030Z,10.80
2018-06-13T22:35:42.919Z,10.80
2018-06-13T22:38:11.513Z,10.80
2018-06-13T22:40:40.413Z,10.70
2018-06-13T22:43:09.121Z,10.70
2018-06-13T22:45:38.101Z,10.60
2018-06-13T22:48:06.926Z,10.50
2018-06-13T22:50:35.838Z,10.50
2018-06-13T22:53:04.683Z,10.50
2018-06-13T22:55:33.459Z,10.50
2018-06-13T22:58:02.115Z,10.50
2018-06-13T23:00:56.548Z,10.50
2018-06-13T23:03:25.305Z,10.40
2018-06-13T23:05:54.021Z,10.40
2018-06-13T23:08:22.662Z,10.40
2018-06-13T23:10:51.461Z,10.30
2018-06-13T23:13:20.074Z,10.30
2018-06-13T23:15:48.819Z,10.30
2018-06-13T23:18:17.600Z,10.20
2018-06-13T23:20:48.702Z,10.20
2018-06-13T23:23:17.522Z,10.20
2018-06-13T23:25:46.240Z,10.20
2018-06-13T23:28:14.918Z,10.20
2018-06-13T23:30:43.699Z,10.20
2018-06-13T23:33:12.464Z,10.20
2018-06-13T23:35:41.232Z,10.20
2018-06-13T23:38:09.993Z,10.10
2018-06-13T23:40:38.714Z,10.10
2018-06-13T23:43:07.441Z,10.00
2018-06-13T23:45:36.241Z,10.00
2018-06-13T23:48:05.572Z,10.00
2018-06-13T23:50:34.257Z,10.00
2018-06-13T23:53:03.098Z,10.00
2018-06-13T23:55:31.909Z,9.90
2018-06-13T23:58:00.557Z,10.00
